createdAt,value
2019-04-14T00:02:44.731Z,18.40
2019-04-14T00:06:50.456Z,18.73
2019-04-14T00:10:57.262Z,17.73
2019-04-14T00:15:02.846Z,17.77
2019-04-14T00:19:08.758Z,21.68
2019-04-14T00:23:15.169Z,21.82
2019-04-14T00:27:21.430Z,20.72
2019-04-14T00:31:28.399Z,21.20
2019-04-14T00:35:43.447Z,17.75
2019-04-14T00:39:51.537Z,19.02
2019-04-14T00:44:10.802Z,14.73
2019-04-14T00:48:21.024Z,19.37
2019-04-14T00:52:27.563Z,19.50
2019-04-14T00:56:34.307Z,16.48
2019-04-14T01:00:40.824Z,20.37
2019-04-14T01:04:46.957Z,22.42
2019-04-14T01:08:53.358Z,16.35
2019-04-14T01:12:58.823Z,20.85
2019-04-14T01:17:04.799Z,23.50
2019-04-14T01:21:11.267Z,17.55
2019-04-14T01:25:19.257Z,20.57
2019-04-14T01:29:25.510Z,20.45
2019-04-14T01:33:31.617Z,15.32
2019-04-14T01:37:37.644Z,15.38
2019-04-14T01:41:43.231Z,17.87
2019-04-14T01:45:59.601Z,15.93
2019-04-14T01:49:57.279Z,16.25
2019-04-14T01:54:43.052Z,14.28
2019-04-14T01:58:51.898Z,22.27
2019-04-14T02:02:57.650Z,15.43
2019-04-14T02:07:05.892Z,14.23
2019-04-14T02:11:11.703Z,18.02
2019-04-14T02:15:17.932Z,13.70
2019-04-14T02:19:24.198Z,14.55
2019-04-14T02:23:30.227Z,14.90
2019-04-14T02:27:36.066Z,19.32
2019-04-14T02:32:11.322Z,16.30
2019-04-14T02:36:26.989Z,14.98
2019-04-14T02:40:27.360Z,18.92
2019-04-14T02:44:38.024Z,14.33
2019-04-14T02:48:44.248Z,14.80
2019-04-14T02:52:58.588Z,16.48
2019-04-14T02:56:53.060Z,12.58
2019-04-14T03:05:08.110Z,15.43
2019-04-14T03:09:38.832Z,20.30
2019-04-14T03:13:29.362Z,16.55
2019-04-14T03:17:58.308Z,17.77
2019-04-14T03:22:12.293Z,19.07
2019-04-14T03:26:38.809Z,13.03
2019-04-14T03:43:13.224Z,13.93
2019-04-14T03:47:23.776Z,11.93
2019-04-14T03:55:16.959Z,13.90
2019-04-14T03:59:10.644Z,14.38
2019-04-14T04:03:17.358Z,18.05
2019-04-14T04:07:23.532Z,14.13
2019-04-14T04:11:30.131Z,15.38
2019-04-14T04:15:37.198Z,15.00
2019-04-14T04:20:13.861Z,20.02
2019-04-14T04:24:37.010Z,14.03
2019-04-14T04:28:54.057Z,14.05
2019-04-14T04:33:22.016Z,14.43
2019-04-14T04:37:49.829Z,13.60
2019-04-14T04:41:55.780Z,12.93
2019-04-14T04:46:02.659Z,15.03
2019-04-14T04:50:08.638Z,16.85
2019-04-14T04:54:14.678Z,16.97
2019-04-14T04:58:21.545Z,18.60
2019-04-14T05:02:28.690Z,13.70
2019-04-14T05:07:09.932Z,15.32
2019-04-14T05:11:21.309Z,16.65
2019-04-14T05:15:57.672Z,14.70
2019-04-14T05:20:05.117Z,21.30
2019-04-14T05:24:11.437Z,15.70
2019-04-14T05:28:24.411Z,15.65
2019-04-14T05:32:34.737Z,15.13
2019-04-14T05:36:41.153Z,15.50
2019-04-14T05:40:47.497Z,13.70
2019-04-14T05:44:53.593Z,20.65
2019-04-14T05:48:59.964Z,19.00
2019-04-14T05:53:06.504Z,17.73
2019-04-14T05:57:13.293Z,14.93
2019-04-14T06:01:20.331Z,19.37
2019-04-14T06:05:28.008Z,15.55
2019-04-14T06:09:33.656Z,24.90
2019-04-14T06:13:39.498Z,16.65
2019-04-14T06:17:45.219Z,18.15
2019-04-14T06:21:51.104Z,22.90
2019-04-14T06:25:56.964Z,17.50
2019-04-14T06:30:18.951Z,17.20
2019-04-14T06:34:43.544Z,17.55
2019-04-14T06:38:52.527Z,18.42
2019-04-14T06:42:59.921Z,17.37
2019-04-14T06:47:08.009Z,22.87
2019-04-14T06:51:13.693Z,18.02
2019-04-14T06:55:19.738Z,20.05
2019-04-14T06:59:25.403Z,17.57
2019-04-14T07:03:30.992Z,18.62
2019-04-14T07:07:36.620Z,24.80
2019-04-14T07:11:42.879Z,16.77
2019-04-14T07:15:48.617Z,16.00
2019-04-14T07:20:01.818Z,15.93
2019-04-14T07:24:02.200Z,16.95
2019-04-14T07:28:07.919Z,15.70
2019-04-14T07:32:28.886Z,20.15
2019-04-14T07:36:59.926Z,22.40
2019-04-14T07:41:37.646Z,17.10
2019-04-14T07:46:04.899Z,18.10
2019-04-14T07:50:20.829Z,21.55
2019-04-14T07:54:41.255Z,21.93
2019-04-14T07:59:21.163Z,18.80
2019-04-14T08:03:44.722Z,16.42
2019-04-14T08:07:51.495Z,20.40
2019-04-14T08:11:57.232Z,16.02
2019-04-14T08:16:03.076Z,16.65
2019-04-14T08:20:08.722Z,18.17
2019-04-14T08:24:14.357Z,20.08
2019-04-14T08:28:21.344Z,19.37
2019-04-14T08:32:27.173Z,17.75
2019-04-14T08:36:33.365Z,15.00
2019-04-14T08:40:39.077Z,17.07
2019-04-14T08:44:49.938Z,16.30
2019-04-14T08:49:00.432Z,22.77
2019-04-14T08:53:23.711Z,16.65
2019-04-14T08:57:48.288Z,19.80
2019-04-14T09:02:05.455Z,26.20
2019-04-14T09:06:28.492Z,20.32
2019-04-14T09:10:38.006Z,21.57
2019-04-14T09:14:55.961Z,22.10
2019-04-14T09:18:53.513Z,16.65
2019-04-14T09:22:58.649Z,25.25
2019-04-14T09:27:04.605Z,16.62
2019-04-14T09:31:10.224Z,15.80
2019-04-14T09:35:16.846Z,17.48
2019-04-14T09:39:23.457Z,19.70
2019-04-14T09:43:29.449Z,22.98
2019-04-14T09:47:35.773Z,18.30
2019-04-14T09:51:41.473Z,23.22
2019-04-14T09:55:47.400Z,21.77
2019-04-14T09:59:53.245Z,37.42
2019-04-14T10:03:58.973Z,32.23
2019-04-14T10:08:04.610Z,30.37
2019-04-14T10:12:10.237Z,30.17
2019-04-14T10:16:16.045Z,24.82
2019-04-14T10:20:21.830Z,26.57
2019-04-14T10:24:27.440Z,27.40
2019-04-14T10:28:33.080Z,23.22
2019-04-14T10:32:39.748Z,24.80
2019-04-14T10:36:45.583Z,21.80
2019-04-14T10:40:51.558Z,23.80
2019-04-14T10:44:57.291Z,24.00
2019-04-14T10:49:03.128Z,20.48
2019-04-14T10:53:08.797Z,20.02
2019-04-14T10:57:15.017Z,24.07
2019-04-14T11:01:20.843Z,23.13
2019-04-14T11:05:29.150Z,22.22
2019-04-14T11:09:34.935Z,24.95
2019-04-14T11:13:40.589Z,21.05
2019-04-14T11:17:46.260Z,23.70
2019-04-14T11:21:52.006Z,20.02
2019-04-14T11:25:57.755Z,23.83
2019-04-14T11:30:03.914Z,18.60
2019-04-14T11:34:09.935Z,20.12
2019-04-14T11:38:37.410Z,20.15
2019-04-14T11:42:52.308Z,24.77
2019-04-14T11:46:52.022Z,20.77
2019-04-14T11:50:57.610Z,21.48
2019-04-14T11:55:03.282Z,23.50
2019-04-14T11:59:08.982Z,22.37
2019-04-14T12:03:25.246Z,22.53
2019-04-14T12:07:40.818Z,29.57
2019-04-14T12:11:46.776Z,31.90
2019-04-14T12:15:52.508Z,33.60
2019-04-14T12:19:58.480Z,35.98
2019-04-14T12:24:04.143Z,33.33
2019-04-14T12:28:09.810Z,31.85
2019-04-14T12:32:15.696Z,27.10
2019-04-14T12:36:21.396Z,35.65
2019-04-14T12:40:27.118Z,28.37
2019-04-14T12:45:00.676Z,38.42
2019-04-14T12:49:11.257Z,35.43
2019-04-14T12:53:16.999Z,26.70
2019-04-14T12:57:40.413Z,32.13
2019-04-14T13:02:06.363Z,30.95
2019-04-14T13:06:12.440Z,35.90
2019-04-14T13:10:18.097Z,36.77
2019-04-14T13:14:23.717Z,29.05
2019-04-14T13:18:29.424Z,31.33
2019-04-14T13:22:36.626Z,33.05
2019-04-14T13:26:42.737Z,29.72
2019-04-14T13:30:50.134Z,34.85
2019-04-14T13:34:58.022Z,33.92
2019-04-14T13:39:05.217Z,32.88
2019-04-14T13:43:12.364Z,35.63
2019-04-14T13:47:18.314Z,37.05
2019-04-14T13:51:24.415Z,40.38
2019-04-14T13:55:30.220Z,38.45
2019-04-14T13:59:35.967Z,45.52
2019-04-14T14:03:41.588Z,27.98
2019-04-14T14:07:48.324Z,40.03
2019-04-14T14:12:12.798Z,28.10
2019-04-14T14:16:55.626Z,40.67
2019-04-14T14:21:26.041Z,39.60
2019-04-14T14:25:36.494Z,40.35
2019-04-14T14:33:46.557Z,34.38
2019-04-14T14:37:52.287Z,35.45
2019-04-14T14:41:57.935Z,45.43
2019-04-14T14:46:23.504Z,45.15
2019-04-14T14:50:35.031Z,43.58
2019-04-14T14:54:40.614Z,53.38
2019-04-14T14:58:46.451Z,40.55
2019-04-14T15:02:52.258Z,42.25
2019-04-14T15:06:58.065Z,38.73
2019-04-14T15:11:04.342Z,38.08
2019-04-14T15:15:11.056Z,40.52
2019-04-14T15:19:16.933Z,52.58
2019-04-14T15:23:25.076Z,36.53
2019-04-14T15:27:30.471Z,56.37
2019-04-14T15:31:36.164Z,46.00
2019-04-14T15:35:42.350Z,38.15
2019-04-14T15:39:47.967Z,37.65
2019-04-14T15:43:53.749Z,43.73
2019-04-14T15:47:59.521Z,38.05
2019-04-14T15:52:05.138Z,48.55
2019-04-14T15:56:13.559Z,51.70
2019-04-14T16:00:37.030Z,42.77
2019-04-14T16:04:49.528Z,54.67
2019-04-14T16:09:17.146Z,41.25
2019-04-14T16:13:44.707Z,38.37
2019-04-14T16:18:11.573Z,57.50
2019-04-14T16:22:19.910Z,41.73
2019-04-14T16:26:43.072Z,50.92
2019-04-14T16:31:13.574Z,41.75
2019-04-14T16:35:23.264Z,57.65
2019-04-14T16:39:29.098Z,43.98
2019-04-14T16:43:35.258Z,54.03
2019-04-14T16:47:41.014Z,37.35
2019-04-14T16:51:53.906Z,38.65
2019-04-14T16:56:21.347Z,40.98
2019-04-14T17:00:32.883Z,47.53
2019-04-14T17:04:38.727Z,41.20
2019-04-14T17:08:46.170Z,40.75
2019-04-14T17:12:51.896Z,50.25
2019-04-14T17:17:28.599Z,45.80
2019-04-14T17:22:05.348Z,39.88
2019-04-14T17:26:22.781Z,38.38
2019-04-14T17:30:50.320Z,46.15
2019-04-14T17:35:08.084Z,47.65
2019-04-14T17:39:36.917Z,46.77
2019-04-14T17:44:08.077Z,44.27
2019-04-14T17:48:38.548Z,44.38
2019-04-14T17:52:48.340Z,38.55
2019-04-14T17:57:08.067Z,47.90
2019-04-14T18:01:37.642Z,45.90
2019-04-14T18:10:32.727Z,45.92
2019-04-14T18:14:50.338Z,46.70
2019-04-14T18:19:13.386Z,51.10
2019-04-14T18:23:19.107Z,48.13
2019-04-14T18:27:25.062Z,50.10
2019-04-14T18:31:40.338Z,53.78
2019-04-14T18:35:56.839Z,52.67
2019-04-14T18:40:08.260Z,47.73
2019-04-14T18:44:32.604Z,54.58
2019-04-14T18:48:55.513Z,47.93
2019-04-14T18:53:25.796Z,57.53
2019-04-14T18:57:49.279Z,49.23
2019-04-14T19:01:55.353Z,46.33
2019-04-14T19:06:01.162Z,46.92
2019-04-14T19:10:08.038Z,44.10
2019-04-14T19:14:17.754Z,42.20
2019-04-14T19:18:31.825Z,42.98
2019-04-14T19:22:40.529Z,47.20
2019-04-14T19:26:47.490Z,43.78
2019-04-14T19:30:53.224Z,51.23
2019-04-14T19:34:59.638Z,47.45
2019-04-14T19:39:09.183Z,46.48
2019-04-14T19:43:23.559Z,47.73
2019-04-14T19:47:23.239Z,46.92
2019-04-14T19:51:28.990Z,46.80
2019-04-14T19:55:37.136Z,48.98
2019-04-14T19:59:42.075Z,43.48
2019-04-14T20:03:47.820Z,41.53
2019-04-14T20:07:54.093Z,51.95
2019-04-14T20:11:59.932Z,42.88
2019-04-14T20:16:24.563Z,48.25
2019-04-14T20:21:07.669Z,40.33
2019-04-14T20:25:34.187Z,52.00
2019-04-14T20:29:43.618Z,48.98
2019-04-14T20:33:51.853Z,42.33
2019-04-14T20:37:58.059Z,41.00
2019-04-14T20:42:03.952Z,43.23
2019-04-14T20:46:10.104Z,44.95
2019-04-14T20:50:16.916Z,49.30
2019-04-14T20:54:22.717Z,39.25
2019-04-14T20:58:28.373Z,47.33
2019-04-14T21:02:44.000Z,48.33
2019-04-14T21:07:04.442Z,47.83
2019-04-14T21:11:15.855Z,51.98
2019-04-14T21:15:46.529Z,44.03
2019-04-14T21:20:13.913Z,40.08
2019-04-14T21:24:33.338Z,40.12
2019-04-14T21:28:48.060Z,47.35
2019-04-14T21:33:03.883Z,39.05
2019-04-14T21:37:33.034Z,42.27
2019-04-14T21:41:39.694Z,36.05
2019-04-14T21:45:45.357Z,39.10
2019-04-14T21:49:51.086Z,34.63
2019-04-14T21:53:56.790Z,35.13
2019-04-14T21:58:21.338Z,43.17
2019-04-14T22:02:44.515Z,45.10
2019-04-14T22:06:51.400Z,44.00
2019-04-14T22:11:00.241Z,45.25
2019-04-14T22:15:06.286Z,36.33
2019-04-14T22:19:11.939Z,37.65
2019-04-14T22:23:17.811Z,40.73
2019-04-14T22:27:24.868Z,42.60
2019-04-14T22:31:30.550Z,42.50
2019-04-14T22:35:36.323Z,40.92
2019-04-14T22:39:44.578Z,44.83
2019-04-14T22:43:51.653Z,44.77
2019-04-14T22:47:57.432Z,43.70
2019-04-14T22:52:03.181Z,37.53
2019-04-14T22:56:08.881Z,36.13
2019-04-14T23:00:21.181Z,40.10
2019-04-14T23:04:53.033Z,35.98
2019-04-14T23:09:20.338Z,40.78
2019-04-14T23:13:47.628Z,50.95
2019-04-14T23:18:04.544Z,43.38
2019-04-14T23:22:32.117Z,35.92
2019-04-14T23:26:37.774Z,47.20
2019-04-14T23:30:43.696Z,44.15
2019-04-14T23:34:51.430Z,46.35
2019-04-14T23:38:57.062Z,41.83
2019-04-14T23:43:02.785Z,38.67
2019-04-14T23:47:08.547Z,41.75
2019-04-14T23:51:15.536Z,35.60
2019-04-14T23:55:21.385Z,44.05
2019-04-14T23:59:27.052Z,38.58
